Time;durP1;ratioP1;P1;durP2;ratioP2;P2;SDS_P1;SDS_P2;PMS_P1;PMS_P2;Temp;Humidity;BMP_temperature;BMP_pressure;BME280_temperature;BME280_humidity;BME280_pressure;Samples;Min_cycle;Max_cycle;Signal;HPM_P1;HPM_P2
2023/01/18 00:00:20;;;;;;;;;27.75;26.00;26.10;47.30;;;;;;112584;1244;55758;-60
2023/01/18 00:03:12;;;;;;;;;29.75;25.75;26.10;47.40;;;;;;112780;1244;57827;-61
2023/01/18 00:05:40;;;;;;;;;27.00;23.00;26.10;47.30;;;;;;112753;1244;49763;-60
2023/01/18 00:08:15;;;;;;;;;30.00;27.50;26.00;47.10;;;;;;112755;1244;50458;-60
2023/01/18 00:10:42;;;;;;;;;27.25;26.00;26.00;47.10;;;;;;112771;1244;45228;-60
2023/01/18 00:13:10;;;;;;;;;29.25;26.00;26.00;47.20;;;;;;112787;1244;55628;-60
2023/01/18 00:15:40;;;;;;;;;29.00;25.75;26.00;47.40;;;;;;112766;1244;56108;-59
2023/01/18 00:18:07;;;;;;;;;31.50;27.00;26.00;47.20;;;;;;112785;1244;50018;-59
2023/01/18 00:20:34;;;;;;;;;34.50;30.25;26.00;47.30;;;;;;112768;1244;49459;-60
2023/01/18 00:23:01;;;;;;;;;28.50;25.50;25.90;47.20;;;;;;112771;1244;45316;-60
2023/01/18 00:25:29;;;;;;;;;28.00;23.50;25.90;47.30;;;;;;112796;1244;55754;-59
2023/01/18 00:27:56;;;;;;;;;29.00;26.00;25.90;47.40;;;;;;112764;1242;56450;-60
2023/01/18 00:30:26;;;;;;;;;29.25;26.00;25.90;47.30;;;;;;112770;1244;50074;-59
2023/01/18 00:32:57;;;;;;;;;28.75;25.00;25.90;47.40;;;;;;112794;1244;50429;-61
2023/01/18 00:35:25;;;;;;;;;32.50;28.00;25.90;47.40;;;;;;112792;1244;44499;-61
2023/01/18 00:37:53;;;;;;;;;30.50;28.00;25.80;47.40;;;;;;112780;1244;55758;-60
2023/01/18 00:40:21;;;;;;;;;28.50;27.25;25.80;47.40;;;;;;112762;1244;56311;-59
2023/01/18 00:45:33;;;;;;;;;27.00;25.50;25.80;48.00;;;;;;112766;1244;49820;-59
2023/01/18 00:48:01;;;;;;;;;32.50;26.75;25.80;47.60;;;;;;112785;1244;45456;-59
2023/01/18 00:50:28;;;;;;;;;30.00;27.75;25.80;47.50;;;;;;112783;1244;55442;-59
2023/01/18 00:52:58;;;;;;;;;29.75;26.25;25.80;47.50;;;;;;112766;1244;56744;-59
2023/01/18 00:55:25;;;;;;;;;27.50;24.00;25.80;47.50;;;;;;112767;1244;49573;-60
2023/01/18 00:57:52;;;;;;;;;32.67;29.67;25.80;47.60;;;;;;112763;1244;49404;-60
2023/01/18 01:00:25;;;;;;;;;24.75;23.75;25.70;47.60;;;;;;112797;1244;44966;-60
2023/01/18 01:02:52;;;;;;;;;29.50;24.00;25.70;47.70;;;;;;112732;1244;56669;-60
2023/01/18 01:08:15;;;;;;;;;26.75;25.50;25.70;48.20;;;;;;112766;1244;50125;-60
2023/01/18 01:10:47;;;;;;;;;26.25;22.75;25.70;47.70;;;;;;112752;1244;50273;-60
2023/01/18 01:27:10;;;;;;;;;27.25;26.25;25.80;48.20;;;;;;112794;1242;45362;-60
2023/01/18 01:29:37;;;;;;;;;27.50;26.00;25.80;48.20;;;;;;112823;1244;55712;-60
2023/01/18 01:32:05;;;;;;;;;28.50;24.75;25.80;48.20;;;;;;112807;1244;55511;-61
2023/01/18 01:34:32;;;;;;;;;31.25;25.75;25.90;48.20;;;;;;112800;1244;49081;-60
2023/01/18 01:36:59;;;;;;;;;30.25;27.00;25.90;48.20;;;;;;112756;1244;49484;-60
2023/01/18 01:39:26;;;;;;;;;30.00;26.75;25.90;48.20;;;;;;112771;1242;46186;-60
2023/01/18 01:41:53;;;;;;;;;30.75;27.25;25.90;48.10;;;;;;112755;1244;56867;-59
2023/01/18 01:44:20;;;;;;;;;29.00;25.50;26.00;48.10;;;;;;112778;1244;56293;-59
2023/01/18 01:46:55;;;;;;;;;32.00;30.25;26.00;48.00;;;;;;112842;1244;49848;-60
2023/01/18 01:49:28;;;;;;;;;29.00;27.00;26.00;47.90;;;;;;112841;1244;49164;-60
2023/01/18 01:52:03;;;;;;;;;28.00;26.00;26.00;47.90;;;;;;112821;1244;45263;-60
2023/01/18 01:54:48;;;;;;;;;30.00;25.75;26.00;47.80;;;;;;112805;1241;56314;-60
2023/01/18 01:57:22;;;;;;;;;25.75;24.75;26.00;47.80;;;;;;112755;1244;55689;-60
2023/01/18 02:00:02;;;;;;;;;28.50;26.00;26.10;48.30;;;;;;112776;1244;49924;-60
2023/01/18 02:02:30;;;;;;;;;34.00;29.00;26.10;47.70;;;;;;112785;1244;49126;-60
2023/01/18 02:04:59;;;;;;;;;25.00;24.00;26.00;47.60;;;;;;112779;1244;44841;-63
2023/01/18 02:07:27;;;;;;;;;29.50;28.00;26.10;48.20;;;;;;112423;1246;55851;-63
2023/01/18 02:09:56;;;;;;;;;30.00;27.00;26.00;47.50;;;;;;112782;1244;56315;-60
2023/01/18 02:12:24;;;;;;;;;27.00;25.00;26.00;47.50;;;;;;112782;1244;49696;-59
2023/01/18 02:14:52;;;;;;;;;35.25;29.00;26.00;47.50;;;;;;112794;1244;49006;-59
2023/01/18 02:17:18;;;;;;;;;27.50;25.75;26.00;47.50;;;;;;112825;1244;45226;-61
2023/01/18 02:20:19;;;;;;;;;28.50;26.75;26.00;47.50;;;;;;112802;1244;56051;-60
2023/01/18 02:23:10;;;;;;;;;30.50;27.00;26.00;47.40;;;;;;112810;1244;55269;-59
2023/01/18 02:25:37;;;;;;;;;29.50;26.75;26.00;47.50;;;;;;112839;1244;49830;-60
2023/01/18 02:28:28;;;;;;;;;27.75;24.25;26.00;47.50;;;;;;112844;1244;49003;-60
2023/01/18 02:31:16;;;;;;;;;29.50;27.00;26.00;48.10;;;;;;112822;1244;45951;-60
2023/01/18 02:33:58;;;;;;;;;24.75;23.75;26.00;47.60;;;;;;112837;1240;56470;-60
2023/01/18 02:36:47;;;;;;;;;29.25;26.50;26.00;47.50;;;;;;112773;1244;55722;-60
2023/01/18 02:39:30;;;;;;;;;32.00;30.00;26.00;47.40;;;;;;112766;1240;49539;-61
2023/01/18 02:47:36;;;;;;;;;29.00;26.50;25.90;47.50;;;;;;112643;1242;56004;-59
2023/01/18 02:50:03;;;;;;;;;28.50;26.50;25.90;47.60;;;;;;112792;1244;56914;-60
2023/01/18 02:52:41;;;;;;;;;33.50;28.75;25.90;47.60;;;;;;112803;1240;49325;-59
2023/01/18 02:55:22;;;;;;;;;24.00;23.00;25.90;47.70;;;;;;112799;1244;49145;-59
2023/01/18 02:57:49;;;;;;;;;31.75;26.00;25.90;47.90;;;;;;112797;1244;45588;-60
2023/01/18 03:00:18;;;;;;;;;30.25;28.75;25.80;47.90;;;;;;112578;1244;55847;-60
2023/01/18 03:02:46;;;;;;;;;26.00;25.00;25.80;47.80;;;;;;112387;1244;56843;-60
2023/01/18 03:05:13;;;;;;;;;33.00;31.00;25.80;47.80;;;;;;112339;1244;49718;-60
2023/01/18 03:07:47;;;;;;;;;31.75;25.75;25.80;47.90;;;;;;112337;1247;49682;-60
2023/01/18 03:10:14;;;;;;;;;24.50;22.00;25.70;48.20;;;;;;112566;1244;45379;-60
2023/01/18 03:12:47;;;;;;;;;24.50;23.00;25.80;47.70;;;;;;112442;1244;55855;-60
2023/01/18 03:15:42;;;;;;;;;31.25;26.00;25.70;47.60;;;;;;112814;1244;55994;-60
2023/01/18 03:18:29;;;;;;;;;27.00;23.50;25.70;47.60;;;;;;112768;1240;49365;-58
2023/01/18 03:20:56;;;;;;;;;29.50;27.50;25.70;47.50;;;;;;112795;1244;49580;-59
2023/01/18 03:23:36;;;;;;;;;24.25;23.25;25.70;47.50;;;;;;112791;1244;44490;-60
2023/01/18 03:26:09;;;;;;;;;28.00;25.50;25.60;47.50;;;;;;112625;1243;56042;-59
2023/01/18 03:34:32;;;;;;;;;27.33;23.33;25.60;47.40;;;;;;112793;1244;48713;-61
2023/01/18 03:37:02;;;;;;;;;24.50;23.50;25.60;47.40;;;;;;112776;1244;46047;-60
2023/01/18 03:39:40;;;;;;;;;23.25;21.00;25.60;47.40;;;;;;112765;1244;56420;-60
2023/01/18 03:42:13;;;;;;;;;26.00;23.33;25.60;47.30;;;;;;112796;1244;55713;-60
2023/01/18 03:44:47;;;;;;;;;27.75;24.75;25.50;47.30;;;;;;112772;1244;49778;-61
2023/01/18 03:47:14;;;;;;;;;25.00;23.75;25.50;47.30;;;;;;112769;1244;50026;-61
2023/01/18 03:49:41;;;;;;;;;29.50;27.25;25.50;47.20;;;;;;112394;1244;45510;-61
2023/01/18 03:52:23;;;;;;;;;23.00;22.00;25.50;47.30;;;;;;112424;1245;55838;-60
2023/01/18 03:54:56;;;;;;;;;23.50;22.00;25.50;47.30;;;;;;112798;1244;56171;-60
2023/01/18 03:57:37;;;;;;;;;25.75;23.00;25.50;47.20;;;;;;112772;1244;50413;-61
2023/01/18 04:00:07;;;;;;;;;23.00;21.50;25.40;47.20;;;;;;112783;1240;50455;-59
2023/01/18 04:02:36;;;;;;;;;24.25;22.50;25.50;47.30;;;;;;112489;1246;45632;-60
2023/01/18 04:05:04;;;;;;;;;27.50;24.25;25.40;47.20;;;;;;112773;1244;55345;-60
2023/01/18 04:07:31;;;;;;;;;22.75;21.00;25.40;47.10;;;;;;112779;1244;55271;-61
2023/01/18 04:09:59;;;;;;;;;26.00;24.25;25.40;47.10;;;;;;112767;1240;49350;-61
2023/01/18 04:12:26;;;;;;;;;27.75;21.50;25.40;47.10;;;;;;112753;1244;49908;-60
2023/01/18 04:14:53;;;;;;;;;27.25;24.25;25.40;47.10;;;;;;112767;1244;45200;-60
2023/01/18 04:17:20;;;;;;;;;24.75;23.00;25.30;47.00;;;;;;112766;1240;55690;-60
2023/01/18 04:19:47;;;;;;;;;22.00;20.67;25.30;47.00;;;;;;112777;1244;55632;-59
2023/01/18 04:22:14;;;;;;;;;27.50;24.00;25.30;47.10;;;;;;112769;1244;48977;-60
2023/01/18 04:24:41;;;;;;;;;22.00;19.00;25.30;47.00;;;;;;112742;1244;49738;-61
2023/01/18 04:27:08;;;;;;;;;25.75;22.75;25.30;47.10;;;;;;112769;1244;44770;-60
2023/01/18 04:29:35;;;;;;;;;24.25;22.75;25.30;47.20;;;;;;112776;1244;55595;-61
2023/01/18 04:32:04;;;;;;;;;23.25;20.75;25.30;46.90;;;;;;112769;1244;55755;-62
2023/01/18 04:34:32;;;;;;;;;23.00;21.00;25.40;46.70;;;;;;112757;1244;50580;-60
2023/01/18 04:36:59;;;;;;;;;23.67;22.67;25.40;46.90;;;;;;112792;1244;49074;-60
2023/01/18 04:39:26;;;;;;;;;23.00;21.00;25.50;46.70;;;;;;112759;1240;46093;-61
2023/01/18 04:41:53;;;;;;;;;20.75;19.25;25.50;46.30;;;;;;112768;1244;55857;-60
2023/01/18 04:44:20;;;;;;;;;27.67;24.67;25.50;46.40;;;;;;112778;1244;56389;-61
2023/01/18 04:46:47;;;;;;;;;20.50;19.25;25.60;46.40;;;;;;112750;1241;49110;-61
2023/01/18 04:49:16;;;;;;;;;25.50;22.50;25.70;46.30;;;;;;112754;1244;49859;-61
2023/01/18 04:51:44;;;;;;;;;24.50;21.75;25.70;46.30;;;;;;112788;1244;45125;-62
2023/01/18 04:54:13;;;;;;;;;20.50;19.00;25.80;46.30;;;;;;112777;1244;55861;-61
2023/01/18 04:56:40;;;;;;;;;20.33;19.33;25.90;46.20;;;;;;112769;1244;56161;-60
2023/01/18 04:59:12;;;;;;;;;18.75;16.75;26.00;46.70;;;;;;112800;1244;50581;-60
2023/01/18 05:01:39;;;;;;;;;22.25;19.50;26.10;46.30;;;;;;112757;1244;49056;-61
2023/01/18 05:04:05;;;;;;;;;18.25;16.75;26.20;46.10;;;;;;112579;1244;45427;-61
2023/01/18 05:06:32;;;;;;;;;16.75;15.50;26.20;46.10;;;;;;112382;1241;55788;-60
2023/01/18 05:08:59;;;;;;;;;18.25;17.00;26.30;46.20;;;;;;112759;1244;56519;-60
2023/01/18 05:11:26;;;;;;;;;18.75;17.25;26.40;46.10;;;;;;112742;1241;49062;-60
2023/01/18 05:13:53;;;;;;;;;20.50;17.25;26.40;46.10;;;;;;112735;1244;49480;-60
2023/01/18 05:16:21;;;;;;;;;15.75;14.75;26.40;46.70;;;;;;112773;1240;45128;-61
2023/01/18 05:18:48;;;;;;;;;19.50;16.50;26.40;46.10;;;;;;112375;1245;56054;-60
2023/01/18 05:21:15;;;;;;;;;16.00;13.00;26.50;46.20;;;;;;112769;1244;55357;-61
2023/01/18 05:23:43;;;;;;;;;15.75;14.50;26.40;46.20;;;;;;112343;1244;48930;-60
2023/01/18 05:26:19;;;;;;;;;22.00;15.50;26.50;46.50;;;;;;112538;1245;49696;-60
2023/01/18 05:28:47;;;;;;;;;29.00;24.50;26.50;46.40;;;;;;112554;1244;44822;-60
2023/01/18 05:31:15;;;;;;;;;43.75;30.00;26.50;46.60;;;;;;112573;1244;56074;-60
2023/01/18 05:33:41;;;;;;;;;47.25;33.75;26.50;46.80;;;;;;112766;1244;55840;-62
2023/01/18 05:36:09;;;;;;;;;55.50;35.75;26.50;47.00;;;;;;112724;1240;49108;-62
2023/01/18 05:38:35;;;;;;;;;48.00;32.50;26.50;46.80;;;;;;112780;1240;50174;-64
2023/01/18 05:41:02;;;;;;;;;45.50;31.00;26.50;45.90;;;;;;112784;1241;44713;-60
2023/01/18 05:43:29;;;;;;;;;40.00;27.75;26.40;44.30;;;;;;112760;1244;55441;-66
2023/01/18 05:45:56;;;;;;;;;41.25;30.25;26.40;43.30;;;;;;112641;1243;56385;-62
2023/01/18 05:48:24;;;;;;;;;47.25;33.50;26.20;43.90;;;;;;112569;1244;49351;-61
2023/01/18 05:50:51;;;;;;;;;52.75;31.75;26.20;44.00;;;;;;112353;1243;50190;-62
2023/01/18 05:53:20;;;;;;;;;37.33;23.67;26.10;44.20;;;;;;112577;1244;45000;-62
2023/01/18 05:56:01;;;;;;;;;34.75;27.00;26.00;43.70;;;;;;112578;1244;55605;-63
2023/01/18 05:58:28;;;;;;;;;29.00;24.00;25.90;43.80;;;;;;112574;1244;55740;-62
2023/01/18 06:00:55;;;;;;;;;28.50;21.25;25.90;43.60;;;;;;112575;1244;49082;-62
2023/01/18 06:03:23;;;;;;;;;37.75;23.50;25.70;43.30;;;;;;112549;1244;49071;-62
2023/01/18 06:05:51;;;;;;;;;26.00;19.00;25.70;43.00;;;;;;112729;1243;44968;-62
2023/01/18 06:08:18;;;;;;;;;27.25;18.75;25.60;42.80;;;;;;112766;1244;56049;-62
2023/01/18 06:10:53;;;;;;;;;22.25;14.50;25.50;42.60;;;;;;112758;1240;55409;-62
2023/01/18 06:13:23;;;;;;;;;19.00;14.50;25.40;42.60;;;;;;112777;1243;48915;-62
2023/01/18 06:15:53;;;;;;;;;16.75;15.50;25.30;42.60;;;;;;112767;1243;49923;-62
2023/01/18 06:18:21;;;;;;;;;19.00;15.67;25.20;42.60;;;;;;112764;1240;45249;-62
2023/01/18 06:20:48;;;;;;;;;14.75;12.50;25.10;42.40;;;;;;112801;1244;56023;-62
2023/01/18 06:23:15;;;;;;;;;15.25;13.00;25.10;42.20;;;;;;112752;1240;55626;-62
2023/01/18 06:25:42;;;;;;;;;15.50;13.00;25.00;42.20;;;;;;112782;1241;50553;-61
2023/01/18 06:28:09;;;;;;;;;20.25;13.75;24.90;42.00;;;;;;112794;1244;49663;-66
2023/01/18 06:30:36;;;;;;;;;17.00;13.00;24.90;42.30;;;;;;112739;1242;46649;-63
2023/01/18 06:33:05;;;;;;;;;15.00;14.00;24.80;42.30;;;;;;112623;1244;55160;-69
2023/01/18 06:35:33;;;;;;;;;14.75;12.75;24.90;42.90;;;;;;112720;1244;56818;-69
2023/01/18 06:38:01;;;;;;;;;15.75;13.75;24.80;42.30;;;;;;112391;1244;49686;-70
2023/01/18 06:40:28;;;;;;;;;13.25;11.75;24.80;42.20;;;;;;112683;1244;49667;-66
2023/01/18 06:42:55;;;;;;;;;13.00;11.75;24.70;42.10;;;;;;112710;1244;44571;-65
2023/01/18 06:45:22;;;;;;;;;17.25;12.50;24.70;41.90;;;;;;112579;1240;55894;-67
2023/01/18 06:47:48;;;;;;;;;12.00;11.00;24.70;42.20;;;;;;112769;1244;55691;-64
2023/01/18 06:50:16;;;;;;;;;14.75;11.75;24.60;41.70;;;;;;112827;1240;50177;-67
2023/01/18 06:52:44;;;;;;;;;11.75;10.00;24.60;41.20;;;;;;112868;1244;48861;-69
2023/01/18 06:55:12;;;;;;;;;14.25;11.25;24.60;41.30;;;;;;112748;1244;45440;-68
2023/01/18 06:57:40;;;;;;;;;11.00;9.50;24.60;41.20;;;;;;112760;1244;56290;-64
2023/01/18 07:00:08;;;;;;;;;15.75;12.75;24.50;41.20;;;;;;112722;1244;56179;-64
2023/01/18 07:02:35;;;;;;;;;12.75;11.25;24.40;41.40;;;;;;112784;1244;50293;-65
2023/01/18 07:05:03;;;;;;;;;13.50;12.00;24.30;41.70;;;;;;112788;1240;48968;-65
2023/01/18 07:07:30;;;;;;;;;14.25;12.75;24.30;41.90;;;;;;112832;1240;44548;-65
2023/01/18 07:09:57;;;;;;;;;16.50;13.75;24.30;41.80;;;;;;112805;1244;56332;-65
2023/01/18 07:12:24;;;;;;;;;13.50;11.50;24.30;42.00;;;;;;112837;1244;56233;-65
2023/01/18 07:14:51;;;;;;;;;14.25;11.75;24.20;41.30;;;;;;112777;1244;48928;-65
2023/01/18 07:17:18;;;;;;;;;11.75;10.25;24.20;41.30;;;;;;112737;1244;49195;-63
2023/01/18 07:19:44;;;;;;;;;12.00;10.25;24.20;40.90;;;;;;112771;1244;44418;-64
2023/01/18 07:22:12;;;;;;;;;14.00;11.00;24.20;41.00;;;;;;112742;1244;56004;-64
2023/01/18 07:24:39;;;;;;;;;13.25;10.75;24.10;41.10;;;;;;112793;1244;55145;-63
2023/01/18 07:27:06;;;;;;;;;12.67;11.00;24.10;41.50;;;;;;112778;1244;49990;-66
2023/01/18 07:29:32;;;;;;;;;14.25;12.75;24.00;41.70;;;;;;112769;1244;49578;-68
2023/01/18 07:32:00;;;;;;;;;12.75;11.00;24.00;42.10;;;;;;112796;1244;44886;-68
2023/01/18 07:34:27;;;;;;;;;10.00;8.00;24.00;42.30;;;;;;112812;1240;55283;-67
2023/01/18 07:36:54;;;;;;;;;8.67;7.00;23.80;41.80;;;;;;112835;1242;55387;-67
2023/01/18 07:39:20;;;;;;;;;9.50;8.00;23.60;41.40;;;;;;112743;1244;48869;-64
2023/01/18 07:41:47;;;;;;;;;9.25;8.00;23.40;41.30;;;;;;112778;1244;48555;-60
2023/01/18 07:44:14;;;;;;;;;8.75;7.75;23.20;41.40;;;;;;112770;1244;45442;-64
2023/01/18 07:46:42;;;;;;;;;10.00;8.00;23.10;41.80;;;;;;112771;1244;55378;-63
2023/01/18 07:49:09;;;;;;;;;11.00;9.25;23.20;42.20;;;;;;112764;1244;56307;-63
2023/01/18 07:51:36;;;;;;;;;10.00;8.00;23.30;42.90;;;;;;112738;1244;49107;-64
2023/01/18 07:54:03;;;;;;;;;9.00;8.00;23.40;43.00;;;;;;112768;1244;48814;-65
2023/01/18 07:56:30;;;;;;;;;9.00;7.75;23.50;43.30;;;;;;112749;1244;45040;-65
2023/01/18 07:58:56;;;;;;;;;8.75;7.00;23.60;43.50;;;;;;112761;1244;56967;-65
2023/01/18 08:01:24;;;;;;;;;9.00;8.00;23.60;43.40;;;;;;112771;1243;55318;-65
2023/01/18 08:03:53;;;;;;;;;9.75;8.75;23.70;43.50;;;;;;112737;1240;49716;-66
2023/01/18 08:06:26;;;;;;;;;9.75;8.75;23.80;43.70;;;;;;112755;1244;48908;-64
2023/01/18 08:08:54;;;;;;;;;10.75;9.75;23.90;43.30;;;;;;112782;1244;45290;-66
2023/01/18 08:11:22;;;;;;;;;10.00;8.25;24.00;44.00;;;;;;112753;1244;55700;-62
2023/01/18 08:13:51;;;;;;;;;11.00;9.25;24.00;44.00;;;;;;112755;1244;55352;-62
2023/01/18 08:16:18;;;;;;;;;8.75;7.00;24.10;43.90;;;;;;112766;1244;49707;-62
2023/01/18 08:18:48;;;;;;;;;9.00;8.00;24.20;44.20;;;;;;112759;1241;49461;-64
2023/01/18 08:21:15;;;;;;;;;9.00;8.00;24.20;44.30;;;;;;112754;1244;45225;-65
2023/01/18 08:23:42;;;;;;;;;10.00;8.50;24.20;44.40;;;;;;112782;1243;55922;-63
2023/01/18 08:26:11;;;;;;;;;8.00;7.00;24.20;44.40;;;;;;112609;1244;56123;-63
2023/01/18 08:28:40;;;;;;;;;8.75;7.00;24.30;44.50;;;;;;112767;1244;49953;-62
2023/01/18 08:31:13;;;;;;;;;9.75;8.00;24.40;44.60;;;;;;112759;1244;49159;-62
2023/01/18 08:33:45;;;;;;;;;9.00;8.00;24.40;44.70;;;;;;112754;1244;45948;-63
2023/01/18 08:36:18;;;;;;;;;9.50;8.00;24.40;44.60;;;;;;112798;1243;55246;-63
2023/01/18 08:38:50;;;;;;;;;10.00;9.00;24.40;44.60;;;;;;112784;1244;55318;-65
2023/01/18 08:41:19;;;;;;;;;9.00;7.25;24.50;44.70;;;;;;112772;1244;50011;-64
2023/01/18 08:43:49;;;;;;;;;10.00;8.00;24.50;44.70;;;;;;112769;1244;49947;-63
2023/01/18 08:46:17;;;;;;;;;10.25;8.75;24.60;44.80;;;;;;112769;1241;44679;-61
2023/01/18 08:48:44;;;;;;;;;10.00;9.00;24.60;44.60;;;;;;112785;1244;56731;-63
2023/01/18 08:51:10;;;;;;;;;11.00;10.00;24.60;44.70;;;;;;112780;1244;55504;-60
2023/01/18 08:53:37;;;;;;;;;9.00;7.00;24.60;44.80;;;;;;112775;1244;50592;-61
2023/01/18 08:56:05;;;;;;;;;10.00;9.00;24.70;44.90;;;;;;112761;1244;48957;-62
2023/01/18 08:58:32;;;;;;;;;12.00;10.75;24.70;45.10;;;;;;112795;1240;45357;-63
2023/01/18 09:01:04;;;;;;;;;10.75;9.75;24.70;44.90;;;;;;112764;1240;55543;-62
2023/01/18 09:03:31;;;;;;;;;11.25;9.75;24.70;45.00;;;;;;112755;1244;56090;-62
2023/01/18 09:06:02;;;;;;;;;11.00;8.00;24.70;45.00;;;;;;112770;1244;49752;-61
2023/01/18 09:08:30;;;;;;;;;11.00;10.00;24.70;45.00;;;;;;112766;1240;49094;-64
2023/01/18 09:11:05;;;;;;;;;11.25;8.25;24.80;45.10;;;;;;112761;1244;44572;-63
2023/01/18 09:13:33;;;;;;;;;11.00;9.50;24.70;45.00;;;;;;112614;1244;55901;-60
2023/01/18 09:16:04;;;;;;;;;11.00;10.00;24.80;44.90;;;;;;112771;1244;56518;-61
2023/01/18 09:18:32;;;;;;;;;11.50;10.00;24.80;44.80;;;;;;112756;1244;50434;-61
2023/01/18 09:21:05;;;;;;;;;13.00;11.00;24.80;44.80;;;;;;112743;1240;48810;-62
2023/01/18 09:23:32;;;;;;;;;12.00;10.50;24.80;44.60;;;;;;112758;1240;44450;-63
2023/01/18 09:26:04;;;;;;;;;16.00;11.75;24.80;44.80;;;;;;112791;1240;56331;-62
2023/01/18 09:28:32;;;;;;;;;11.25;10.00;24.80;45.70;;;;;;112769;1244;56355;-68
2023/01/18 09:31:04;;;;;;;;;12.00;10.25;24.70;46.00;;;;;;112784;1244;49698;-63
2023/01/18 09:33:31;;;;;;;;;12.75;10.75;24.70;46.10;;;;;;112738;1244;49131;-63
2023/01/18 09:36:01;;;;;;;;;13.75;10.25;24.70;46.30;;;;;;112767;1244;44703;-63
2023/01/18 09:38:30;;;;;;;;;12.25;8.75;24.70;46.60;;;;;;112768;1244;56724;-66
2023/01/18 09:40:57;;;;;;;;;9.67;8.00;24.70;46.80;;;;;;112786;1244;56241;-64
2023/01/18 09:43:27;;;;;;;;;12.25;10.50;24.70;46.50;;;;;;112779;1244;48889;-66
2023/01/18 09:45:55;;;;;;;;;12.00;10.50;24.60;46.50;;;;;;112783;1244;49310;-64
2023/01/18 09:48:29;;;;;;;;;16.50;10.25;24.60;46.90;;;;;;112764;1244;44731;-66
2023/01/18 09:51:04;;;;;;;;;14.00;11.00;24.60;47.20;;;;;;112784;1244;55832;-65
2023/01/18 09:53:49;;;;;;;;;12.75;10.50;24.60;47.60;;;;;;112610;1242;56025;-65
2023/01/18 09:56:46;;;;;;;;;14.50;11.75;24.60;47.40;;;;;;112774;1244;49018;-66
2023/01/18 09:59:58;;;;;;;;;13.00;10.50;24.60;47.50;;;;;;112769;1244;49346;-64
2023/01/18 10:02:31;;;;;;;;;11.00;9.00;24.60;47.50;;;;;;111894;1252;45163;-66
2023/01/18 10:05:04;;;;;;;;;11.00;10.00;24.60;47.60;;;;;;111731;1252;56821;-65
2023/01/18 10:07:33;;;;;;;;;11.75;9.00;24.60;47.60;;;;;;112432;1244;55553;-65
2023/01/18 10:10:02;;;;;;;;;13.25;10.25;24.60;47.60;;;;;;112768;1244;50572;-64
2023/01/18 10:12:29;;;;;;;;;13.00;11.25;24.60;47.60;;;;;;112797;1244;49763;-65
2023/01/18 10:15:00;;;;;;;;;13.25;10.00;24.60;47.70;;;;;;112804;1244;44935;-63
2023/01/18 10:17:39;;;;;;;;;13.67;11.00;24.60;47.60;;;;;;112397;1245;56849;-64
2023/01/18 10:20:16;;;;;;;;;16.50;13.50;24.70;47.70;;;;;;112784;1240;55834;-62
2023/01/18 10:22:51;;;;;;;;;16.25;11.75;24.60;47.60;;;;;;112395;1244;49146;-62
2023/01/18 10:26:10;;;;;;;;;15.50;13.50;24.60;47.60;;;;;;112765;1244;50629;-62
2023/01/18 10:28:52;;;;;;;;;17.50;13.75;24.60;47.60;;;;;;112554;1240;45484;-62
2023/01/18 10:31:25;;;;;;;;;16.50;15.00;24.70;47.70;;;;;;112792;1241;55824;-61
2023/01/18 10:33:55;;;;;;;;;17.00;15.00;24.60;47.80;;;;;;112761;1244;56045;-60
2023/01/18 10:36:32;;;;;;;;;16.25;13.00;24.60;47.60;;;;;;112763;1244;50006;-60
2023/01/18 10:39:03;;;;;;;;;17.50;12.25;24.60;47.70;;;;;;112775;1244;50167;-64
2023/01/18 10:41:36;;;;;;;;;16.00;13.25;24.60;47.70;;;;;;112749;1244;44903;-64
2023/01/18 10:44:03;;;;;;;;;15.00;13.75;24.60;47.80;;;;;;112780;1244;55840;-61
2023/01/18 10:46:30;;;;;;;;;14.75;13.75;24.70;47.90;;;;;;112763;1244;56032;-62
2023/01/18 10:48:58;;;;;;;;;13.50;11.00;24.60;47.80;;;;;;112758;1244;49854;-63
2023/01/18 10:51:25;;;;;;;;;18.00;15.00;24.60;47.80;;;;;;112760;1244;50440;-65
2023/01/18 10:53:52;;;;;;;;;15.00;12.00;24.60;47.80;;;;;;112786;1244;44369;-64
2023/01/18 10:56:24;;;;;;;;;14.00;12.00;24.60;48.10;;;;;;112777;1244;56166;-63
2023/01/18 10:58:57;;;;;;;;;13.00;11.00;24.60;48.10;;;;;;112769;1244;56613;-64
2023/01/18 11:01:34;;;;;;;;;17.00;14.00;24.60;48.20;;;;;;112797;1240;49512;-63
2023/01/18 11:04:06;;;;;;;;;17.50;12.00;24.60;48.30;;;;;;112783;1244;48889;-64
2023/01/18 11:06:47;;;;;;;;;14.00;12.00;24.60;48.30;;;;;;112775;1244;45016;-64
2023/01/18 11:09:33;;;;;;;;;14.00;13.00;24.60;48.30;;;;;;112758;1244;56048;-64
2023/01/18 11:12:33;;;;;;;;;16.75;13.50;24.60;48.30;;;;;;112779;1244;56124;-63
2023/01/18 11:15:12;;;;;;;;;14.50;12.75;24.50;48.20;;;;;;112766;1243;49568;-63
2023/01/18 11:17:43;;;;;;;;;15.25;12.75;24.50;48.30;;;;;;112739;1244;48954;-63
2023/01/18 11:20:19;;;;;;;;;15.25;13.00;24.50;48.40;;;;;;112757;1244;45869;-64
2023/01/18 11:22:57;;;;;;;;;16.25;11.00;24.60;48.40;;;;;;112770;1244;56694;-63
2023/01/18 11:25:36;;;;;;;;;15.50;14.00;24.60;48.40;;;;;;112786;1241;57282;-63
2023/01/18 11:28:06;;;;;;;;;13.00;12.00;24.60;48.40;;;;;;112792;1243;50481;-64
2023/01/18 11:30:47;;;;;;;;;13.75;12.50;24.60;48.40;;;;;;112783;1244;49299;-63
2023/01/18 11:33:21;;;;;;;;;12.75;11.00;24.60;48.40;;;;;;112774;1240;45637;-71
2023/01/18 11:35:58;;;;;;;;;13.75;12.00;24.60;48.40;;;;;;112383;1244;56159;-67
2023/01/18 11:38:28;;;;;;;;;15.75;13.00;24.60;48.20;;;;;;112771;1240;55676;-66
2023/01/18 11:41:18;;;;;;;;;14.00;13.00;24.60;47.80;;;;;;112747;1240;49819;-63
2023/01/18 11:44:05;;;;;;;;;14.50;11.50;24.70;48.00;;;;;;112765;1244;49236;-64
2023/01/18 11:46:52;;;;;;;;;13.00;11.75;24.70;48.20;;;;;;112757;1244;44826;-64
2023/01/18 11:49:22;;;;;;;;;13.25;12.00;24.70;48.20;;;;;;112777;1241;57636;-64
2023/01/18 11:51:52;;;;;;;;;12.75;11.75;24.70;48.20;;;;;;112820;1244;56397;-65
2023/01/18 11:54:31;;;;;;;;;15.75;11.75;24.80;48.20;;;;;;112804;1244;49960;-65
2023/01/18 11:56:58;;;;;;;;;18.25;13.75;24.80;48.20;;;;;;112818;1244;50066;-65
2023/01/18 11:59:29;;;;;;;;;16.00;13.00;24.90;48.30;;;;;;112611;1242;45083;-63
2023/01/18 12:02:34;;;;;;;;;17.75;13.75;24.90;48.30;;;;;;112797;1244;55533;-63
2023/01/18 12:05:27;;;;;;;;;12.75;11.00;24.90;48.30;;;;;;112816;1244;55853;-63
2023/01/18 12:08:03;;;;;;;;;15.25;12.00;25.00;48.20;;;;;;112802;1240;49007;-65
2023/01/18 12:10:48;;;;;;;;;13.00;11.00;25.00;48.00;;;;;;112773;1244;48988;-67
2023/01/18 12:13:42;;;;;;;;;13.00;11.00;25.00;48.00;;;;;;112778;1244;45491;-63
2023/01/18 12:16:30;;;;;;;;;16.50;13.75;25.10;48.00;;;;;;112768;1244;55363;-62
2023/01/18 12:19:19;;;;;;;;;16.50;13.00;25.20;48.20;;;;;;112778;1244;55984;-64
2023/01/18 12:22:10;;;;;;;;;13.75;12.75;25.20;47.60;;;;;;112767;1244;49719;-64
2023/01/18 12:24:52;;;;;;;;;13.75;12.75;25.20;47.40;;;;;;112772;1240;48938;-64
2023/01/18 12:27:39;;;;;;;;;14.00;11.00;25.20;47.40;;;;;;112780;1244;44879;-65
2023/01/18 12:30:26;;;;;;;;;14.00;12.75;25.20;47.60;;;;;;112597;1244;56260;-65
2023/01/18 12:33:12;;;;;;;;;14.00;11.00;25.20;47.70;;;;;;112787;1244;56101;-66
2023/01/18 12:36:01;;;;;;;;;13.67;12.00;25.20;47.70;;;;;;112771;1244;50107;-64
2023/01/18 12:38:31;;;;;;;;;15.25;13.75;25.10;47.70;;;;;;112811;1242;49612;-66
2023/01/18 12:41:14;;;;;;;;;13.67;11.00;25.10;47.70;;;;;;112773;1244;46188;-65
2023/01/18 12:44:18;;;;;;;;;13.00;11.25;25.10;47.80;;;;;;112760;1244;55325;-65
2023/01/18 12:47:11;;;;;;;;;13.00;12.00;25.00;47.70;;;;;;112355;1244;55882;-65
2023/01/18 12:49:43;;;;;;;;;14.25;12.00;25.00;47.80;;;;;;112727;1244;50036;-67
2023/01/18 12:52:12;;;;;;;;;10.75;9.00;25.00;47.80;;;;;;112723;1240;49322;-67
2023/01/18 12:54:45;;;;;;;;;12.75;11.50;25.00;47.80;;;;;;112744;1244;44832;-67
2023/01/18 12:57:13;;;;;;;;;10.75;9.25;24.90;47.60;;;;;;112709;1244;55685;-66
2023/01/18 12:59:53;;;;;;;;;13.75;12.75;24.90;47.60;;;;;;112706;1244;55613;-65
2023/01/18 13:02:31;;;;;;;;;12.00;10.50;24.90;47.70;;;;;;112591;1240;49373;-64
2023/01/18 13:05:22;;;;;;;;;14.50;11.75;24.90;47.80;;;;;;112715;1244;49159;-62
2023/01/18 13:08:19;;;;;;;;;12.00;11.00;24.90;47.60;;;;;;112767;1240;44901;-62
2023/01/18 13:10:47;;;;;;;;;13.00;11.00;24.90;47.50;;;;;;112236;1245;56186;-62
2023/01/18 13:13:22;;;;;;;;;15.00;12.00;24.90;47.30;;;;;;112058;1245;646402;-64